sensor_id;sensor_type;location;lat;lon;timestamp;pressure;altitude;pressure_sealevel;temperature;humidity
58991;BME280;44781;53.444;14.476;2023-05-11T00:01:14;101394.81;;;15.16;44.93
58991;BME280;44781;53.444;14.476;2023-05-11T00:03:41;101391.80;;;15.12;44.88
58991;BME280;44781;53.444;14.476;2023-05-11T00:06:08;101392.13;;;15.08;44.97
58991;BME280;44781;53.444;14.476;2023-05-11T00:08:34;101391.30;;;15.05;45.23
58991;BME280;44781;53.444;14.476;2023-05-11T00:11:01;101391.82;;;15.01;45.09
58991;BME280;44781;53.444;14.476;2023-05-11T00:13:29;101394.84;;;14.96;45.33
58991;BME280;44781;53.444;14.476;2023-05-11T00:15:56;101393.64;;;14.92;45.23
58991;BME280;44781;53.444;14.476;2023-05-11T00:18:22;101395.01;;;14.88;45.36
58991;BME280;44781;53.444;14.476;2023-05-11T00:20:49;101397.65;;;14.84;45.46
58991;BME280;44781;53.444;14.476;2023-05-11T00:23:19;101397.64;;;14.80;45.51
58991;BME280;44781;53.444;14.476;2023-05-11T00:25:45;101398.52;;;14.76;45.62
58991;BME280;44781;53.444;14.476;2023-05-11T00:28:12;101401.55;;;14.72;45.64
58991;BME280;44781;53.444;14.476;2023-05-11T00:30:39;101402.91;;;14.68;45.95
58991;BME280;44781;53.444;14.476;2023-05-11T00:33:06;101401.62;;;14.65;45.93
58991;BME280;44781;53.444;14.476;2023-05-11T00:35:33;101403.21;;;14.60;46.00
58991;BME280;44781;53.444;14.476;2023-05-11T00:38:00;101404.27;;;14.56;45.99
58991;BME280;44781;53.444;14.476;2023-05-11T00:40:27;101407.71;;;14.52;46.07
58991;BME280;44781;53.444;14.476;2023-05-11T00:42:54;101410.88;;;14.49;46.27
58991;BME280;44781;53.444;14.476;2023-05-11T00:45:21;101416.48;;;14.46;46.41
58991;BME280;44781;53.444;14.476;2023-05-11T00:47:48;101417.79;;;14.42;46.52
58991;BME280;44781;53.444;14.476;2023-05-11T00:50:16;101419.89;;;14.38;46.70
58991;BME280;44781;53.444;14.476;2023-05-11T00:52:44;101421.11;;;14.35;46.83
58991;BME280;44781;53.444;14.476;2023-05-11T00:55:12;101421.95;;;14.31;46.92
58991;BME280;44781;53.444;14.476;2023-05-11T00:57:39;101420.36;;;14.26;47.12
58991;BME280;44781;53.444;14.476;2023-05-11T01:00:07;101420.34;;;14.22;47.17
58991;BME280;44781;53.444;14.476;2023-05-11T01:02:34;101418.02;;;14.17;47.39
58991;BME280;44781;53.444;14.476;2023-05-11T01:05:01;101417.39;;;14.14;47.34
58991;BME280;44781;53.444;14.476;2023-05-11T01:07:33;101418.41;;;14.10;47.50
58991;BME280;44781;53.444;14.476;2023-05-11T01:15:40;101420.89;;;13.97;47.78
58991;BME280;44781;53.444;14.476;2023-05-11T01:18:13;101423.36;;;13.93;47.82
58991;BME280;44781;53.444;14.476;2023-05-11T01:20:46;101426.08;;;13.91;47.72
58991;BME280;44781;53.444;14.476;2023-05-11T01:31:06;101434.98;;;13.78;48.28
58991;BME280;44781;53.444;14.476;2023-05-11T01:33:36;101436.80;;;13.76;48.27
58991;BME280;44781;53.444;14.476;2023-05-11T01:36:09;101440.23;;;13.73;48.41
58991;BME280;44781;53.444;14.476;2023-05-11T01:38:39;101447.30;;;13.71;48.62
58991;BME280;44781;53.444;14.476;2023-05-11T01:41:12;101441.46;;;13.68;48.62
58991;BME280;44781;53.444;14.476;2023-05-11T01:43:43;101441.83;;;13.66;48.90
58991;BME280;44781;53.444;14.476;2023-05-11T01:46:12;101444.96;;;13.62;48.77
58991;BME280;44781;53.444;14.476;2023-05-11T01:48:45;101445.16;;;13.59;48.85
58991;BME280;44781;53.444;14.476;2023-05-11T01:51:14;101447.90;;;13.56;48.99
58991;BME280;44781;53.444;14.476;2023-05-11T01:53:45;101448.83;;;13.54;49.05
58991;BME280;44781;53.444;14.476;2023-05-11T01:56:14;101454.36;;;13.51;48.99
58991;BME280;44781;53.444;14.476;2023-05-11T01:58:41;101457.47;;;13.48;49.08
58991;BME280;44781;53.444;14.476;2023-05-11T02:01:10;101461.94;;;13.45;49.45
58991;BME280;44781;53.444;14.476;2023-05-11T02:03:38;101463.20;;;13.42;49.35
58991;BME280;44781;53.444;14.476;2023-05-11T02:06:09;101466.07;;;13.39;49.55
58991;BME280;44781;53.444;14.476;2023-05-11T02:08:38;101465.73;;;13.37;49.74
58991;BME280;44781;53.444;14.476;2023-05-11T02:11:07;101469.33;;;13.34;50.20
58991;BME280;44781;53.444;14.476;2023-05-11T02:13:37;101470.25;;;13.31;50.01
58991;BME280;44781;53.444;14.476;2023-05-11T02:16:08;101473.79;;;13.29;50.16
58991;BME280;44781;53.444;14.476;2023-05-11T02:18:39;101475.74;;;13.26;50.20
58991;BME280;44781;53.444;14.476;2023-05-11T02:21:08;101475.19;;;13.24;50.51
58991;BME280;44781;53.444;14.476;2023-05-11T02:23:36;101475.59;;;13.21;50.56
58991;BME280;44781;53.444;14.476;2023-05-11T02:26:05;101476.73;;;13.18;50.83
58991;BME280;44781;53.444;14.476;2023-05-11T02:28:33;101478.21;;;13.15;51.06
58991;BME280;44781;53.444;14.476;2023-05-11T02:31:05;101480.21;;;13.12;51.10
58991;BME280;44781;53.444;14.476;2023-05-11T02:33:43;101479.02;;;13.09;51.39
58991;BME280;44781;53.444;14.476;2023-05-11T02:36:13;101483.33;;;13.06;51.31
58991;BME280;44781;53.444;14.476;2023-05-11T02:38:45;101483.37;;;13.02;51.32
58991;BME280;44781;53.444;14.476;2023-05-11T02:41:20;101486.60;;;13.00;51.04
58991;BME280;44781;53.444;14.476;2023-05-11T02:43:51;101488.29;;;12.98;51.12
58991;BME280;44781;53.444;14.476;2023-05-11T02:46:23;101491.89;;;12.98;51.22
58991;BME280;44781;53.444;14.476;2023-05-11T02:48:55;101486.56;;;12.98;51.17
58991;BME280;44781;53.444;14.476;2023-05-11T02:51:30;101489.73;;;12.98;51.04
58991;BME280;44781;53.444;14.476;2023-05-11T02:53:58;101491.36;;;12.97;51.03
58991;BME280;44781;53.444;14.476;2023-05-11T02:56:29;101493.30;;;12.98;51.20
58991;BME280;44781;53.444;14.476;2023-05-11T02:58:56;101498.58;;;12.98;51.24
58991;BME280;44781;53.444;14.476;2023-05-11T03:01:25;101492.59;;;12.98;51.07
58991;BME280;44781;53.444;14.476;2023-05-11T03:03:52;101493.48;;;12.98;51.31
58991;BME280;44781;53.444;14.476;2023-05-11T03:06:20;101492.63;;;12.97;51.14
58991;BME280;44781;53.444;14.476;2023-05-11T03:08:47;101494.21;;;12.98;51.24
58991;BME280;44781;53.444;14.476;2023-05-11T03:11:16;101500.42;;;12.97;51.23
58991;BME280;44781;53.444;14.476;2023-05-11T03:13:46;101501.51;;;12.97;51.33
58991;BME280;44781;53.444;14.476;2023-05-11T03:16:14;101502.61;;;12.97;51.44
58991;BME280;44781;53.444;14.476;2023-05-11T03:18:43;101503.15;;;12.96;51.47
58991;BME280;44781;53.444;14.476;2023-05-11T03:21:10;101503.52;;;12.96;51.63
58991;BME280;44781;53.444;14.476;2023-05-11T03:23:44;101506.54;;;12.96;51.67
58991;BME280;44781;53.444;14.476;2023-05-11T03:26:11;101508.30;;;12.96;51.67
58991;BME280;44781;53.444;14.476;2023-05-11T03:28:40;101507.82;;;12.96;51.63
58991;BME280;44781;53.444;14.476;2023-05-11T03:31:08;101509.99;;;12.95;51.64
58991;BME280;44781;53.444;14.476;2023-05-11T03:33:35;101512.86;;;12.95;51.89
58991;BME280;44781;53.444;14.476;2023-05-11T03:36:03;101510.06;;;12.94;51.83
58991;BME280;44781;53.444;14.476;2023-05-11T03:38:34;101512.56;;;12.94;51.76
58991;BME280;44781;53.444;14.476;2023-05-11T03:41:01;101513.64;;;12.94;51.79
58991;BME280;44781;53.444;14.476;2023-05-11T03:43:31;101509.91;;;12.94;51.91
58991;BME280;44781;53.444;14.476;2023-05-11T03:46:01;101511.70;;;12.94;51.86
58991;BME280;44781;53.444;14.476;2023-05-11T03:48:30;101514.89;;;12.94;52.03
58991;BME280;44781;53.444;14.476;2023-05-11T03:50:58;101510.62;;;12.94;51.94
58991;BME280;44781;53.444;14.476;2023-05-11T03:53:25;101506.70;;;12.94;51.97
58991;BME280;44781;53.444;14.476;2023-05-11T03:55:52;101506.84;;;12.95;51.96
58991;BME280;44781;53.444;14.476;2023-05-11T03:58:20;101506.80;;;12.95;52.10
58991;BME280;44781;53.444;14.476;2023-05-11T04:00:48;101507.46;;;12.96;51.90
58991;BME280;44781;53.444;14.476;2023-05-11T04:03:15;101508.79;;;12.97;52.00
58991;BME280;44781;53.444;14.476;2023-05-11T04:05:46;101512.27;;;12.98;52.07
58991;BME280;44781;53.444;14.476;2023-05-11T04:08:53;101510.80;;;12.98;51.97
58991;BME280;44781;53.444;14.476;2023-05-11T04:11:59;101511.13;;;12.99;52.10
58991;BME280;44781;53.444;14.476;2023-05-11T04:14:53;101515.34;;;13.00;52.02
58991;BME280;44781;53.444;14.476;2023-05-11T04:17:22;101514.08;;;13.00;52.10
58991;BME280;44781;53.444;14.476;2023-05-11T04:19:49;101516.35;;;13.00;52.18
58991;BME280;44781;53.444;14.476;2023-05-11T04:22:17;101517.23;;;13.00;52.21
58991;BME280;44781;53.444;14.476;2023-05-11T04:24:44;101519.84;;;13.01;52.01
58991;BME280;44781;53.444;14.476;2023-05-11T04:27:11;101522.02;;;13.00;52.13
58991;BME280;44781;53.444;14.476;2023-05-11T04:29:37;101521.53;;;13.02;52.18
58991;BME280;44781;53.444;14.476;2023-05-11T04:32:04;101520.72;;;13.04;52.22
58991;BME280;44781;53.444;14.476;2023-05-11T04:34:31;101521.31;;;13.06;52.30
58991;BME280;44781;53.444;14.476;2023-05-11T04:36:59;101522.41;;;13.07;52.42
58991;BME280;44781;53.444;14.476;2023-05-11T04:39:27;101524.73;;;13.09;52.48
58991;BME280;44781;53.444;14.476;2023-05-11T04:41:54;101525.34;;;13.11;52.35
58991;BME280;44781;53.444;14.476;2023-05-11T04:44:21;101526.79;;;13.13;51.98
58991;BME280;44781;53.444;14.476;2023-05-11T04:46:48;101531.09;;;13.14;51.91
58991;BME280;44781;53.444;14.476;2023-05-11T04:49:14;101538.48;;;13.15;51.89
58991;BME280;44781;53.444;14.476;2023-05-11T04:51:41;101537.70;;;13.16;51.80
58991;BME280;44781;53.444;14.476;2023-05-11T04:54:09;101536.45;;;13.16;51.85
58991;BME280;44781;53.444;14.476;2023-05-11T04:56:36;101542.04;;;13.17;51.65
58991;BME280;44781;53.444;14.476;2023-05-11T04:59:06;101544.36;;;13.17;51.70
58991;BME280;44781;53.444;14.476;2023-05-11T05:01:36;101544.48;;;13.18;51.68
58991;BME280;44781;53.444;14.476;2023-05-11T05:04:03;101551.04;;;13.18;51.70
58991;BME280;44781;53.444;14.476;2023-05-11T05:06:29;101551.41;;;13.18;51.91
58991;BME280;44781;53.444;14.476;2023-05-11T05:08:57;101551.23;;;13.18;51.61
58991;BME280;44781;53.444;14.476;2023-05-11T05:11:25;101547.52;;;13.18;51.53
58991;BME280;44781;53.444;14.476;2023-05-11T05:13:53;101551.65;;;13.19;51.68
58991;BME280;44781;53.444;14.476;2023-05-11T05:16:20;101550.27;;;13.21;51.55
58991;BME280;44781;53.444;14.476;2023-05-11T05:18:47;101556.16;;;13.23;51.55
58991;BME280;44781;53.444;14.476;2023-05-11T05:21:14;101557.83;;;13.25;51.57
58991;BME280;44781;53.444;14.476;2023-05-11T05:23:41;101557.70;;;13.26;51.60
58991;BME280;44781;53.444;14.476;2023-05-11T05:26:08;101559.52;;;13.28;51.48
58991;BME280;44781;53.444;14.476;2023-05-11T05:28:36;101557.63;;;13.30;51.70
58991;BME280;44781;53.444;14.476;2023-05-11T05:31:04;101559.52;;;13.33;51.52
58991;BME280;44781;53.444;14.476;2023-05-11T05:33:32;101561.95;;;13.36;51.63
58991;BME280;44781;53.444;14.476;2023-05-11T05:35:59;101564.14;;;13.40;51.38
58991;BME280;44781;53.444;14.476;2023-05-11T05:38:26;101564.21;;;13.44;51.26
58991;BME280;44781;53.444;14.476;2023-05-11T05:40:53;101566.42;;;13.48;51.44
58991;BME280;44781;53.444;14.476;2023-05-11T05:43:20;101568.89;;;13.51;51.17
58991;BME280;44781;53.444;14.476;2023-05-11T05:45:47;101574.58;;;13.53;51.35
58991;BME280;44781;53.444;14.476;2023-05-11T05:48:14;101575.31;;;13.55;51.22
58991;BME280;44781;53.444;14.476;2023-05-11T05:50:41;101576.41;;;13.57;51.01
58991;BME280;44781;53.444;14.476;2023-05-11T05:53:09;101579.15;;;13.58;51.15
58991;BME280;44781;53.444;14.476;2023-05-11T05:55:36;101575.11;;;13.59;51.02
58991;BME280;44781;53.444;14.476;2023-05-11T05:58:05;101584.79;;;13.63;51.13
58991;BME280;44781;53.444;14.476;2023-05-11T06:00:33;101586.87;;;13.66;50.88
58991;BME280;44781;53.444;14.476;2023-05-11T06:03:03;101590.37;;;13.69;51.04
58991;BME280;44781;53.444;14.476;2023-05-11T06:05:30;101594.15;;;13.73;50.96
58991;BME280;44781;53.444;14.476;2023-05-11T06:08:00;101595.11;;;13.77;51.28
58991;BME280;44781;53.444;14.476;2023-05-11T06:10:28;101591.25;;;13.81;51.31
58991;BME280;44781;53.444;14.476;2023-05-11T06:12:55;101593.54;;;13.86;51.00
58991;BME280;44781;53.444;14.476;2023-05-11T06:15:23;101597.55;;;13.92;50.92
58991;BME280;44781;53.444;14.476;2023-05-11T06:17:59;101595.15;;;13.97;50.85
58991;BME280;44781;53.444;14.476;2023-05-11T06:20:27;101599.77;;;14.04;50.75
58991;BME280;44781;53.444;14.476;2023-05-11T06:22:54;101599.02;;;14.12;50.67
58991;BME280;44781;53.444;14.476;2023-05-11T06:25:22;101602.77;;;14.18;50.34
58991;BME280;44781;53.444;14.476;2023-05-11T06:27:52;101603.50;;;14.25;50.46
58991;BME280;44781;53.444;14.476;2023-05-11T06:30:19;101601.17;;;14.32;50.31
58991;BME280;44781;53.444;14.476;2023-05-11T06:32:47;101597.45;;;14.38;50.20
58991;BME280;44781;53.444;14.476;2023-05-11T06:35:16;101601.61;;;14.44;50.25
58991;BME280;44781;53.444;14.476;2023-05-11T06:37:43;101596.66;;;14.50;50.43
58991;BME280;44781;53.444;14.476;2023-05-11T06:40:10;101601.61;;;14.56;50.41
58991;BME280;44781;53.444;14.476;2023-05-11T06:42:37;101605.05;;;14.62;50.07
58991;BME280;44781;53.444;14.476;2023-05-11T06:45:07;101604.92;;;14.68;50.14
58991;BME280;44781;53.444;14.476;2023-05-11T06:47:35;101603.98;;;14.73;49.99
58991;BME280;44781;53.444;14.476;2023-05-11T06:50:02;101599.93;;;14.79;50.31
58991;BME280;44781;53.444;14.476;2023-05-11T06:52:29;101603.92;;;14.87;50.19
58991;BME280;44781;53.444;14.476;2023-05-11T06:54:57;101602.05;;;14.95;50.03
58991;BME280;44781;53.444;14.476;2023-05-11T06:57:26;101597.83;;;15.03;49.96
58991;BME280;44781;53.444;14.476;2023-05-11T06:59:53;101602.23;;;15.10;49.70
58991;BME280;44781;53.444;14.476;2023-05-11T07:02:20;101604.95;;;15.16;49.52
58991;BME280;44781;53.444;14.476;2023-05-11T07:04:46;101602.08;;;15.21;49.39
58991;BME280;44781;53.444;14.476;2023-05-11T07:07:14;101597.09;;;15.25;49.49
58991;BME280;44781;53.444;14.476;2023-05-11T07:09:42;101598.42;;;15.30;49.42
58991;BME280;44781;53.444;14.476;2023-05-11T07:12:09;101599.67;;;15.34;49.21
58991;BME280;44781;53.444;14.476;2023-05-11T07:14:42;101602.18;;;15.39;49.02
58991;BME280;44781;53.444;14.476;2023-05-11T07:17:11;101602.16;;;15.44;49.00
58991;BME280;44781;53.444;14.476;2023-05-11T07:19:38;101603.75;;;15.48;49.11
58991;BME280;44781;53.444;14.476;2023-05-11T07:22:05;101605.81;;;15.53;49.08
58991;BME280;44781;53.444;14.476;2023-05-11T07:24:32;101604.93;;;15.59;49.19
58991;BME280;44781;53.444;14.476;2023-05-11T07:26:59;101601.79;;;15.65;48.91
58991;BME280;44781;53.444;14.476;2023-05-11T07:29:27;101600.77;;;15.70;48.89
58991;BME280;44781;53.444;14.476;2023-05-11T07:31:54;101601.64;;;15.78;48.80
58991;BME280;44781;53.444;14.476;2023-05-11T07:34:21;101604.98;;;15.85;48.60
58991;BME280;44781;53.444;14.476;2023-05-11T07:36:49;101608.38;;;15.93;48.72
58991;BME280;44781;53.444;14.476;2023-05-11T07:39:16;101604.30;;;16.03;48.99
58991;BME280;44781;53.444;14.476;2023-05-11T07:41:43;101606.20;;;16.14;49.05
58991;BME280;44781;53.444;14.476;2023-05-11T07:44:10;101606.01;;;16.26;48.64
58991;BME280;44781;53.444;14.476;2023-05-11T07:46:37;101608.98;;;16.40;48.83
58991;BME280;44781;53.444;14.476;2023-05-11T07:49:04;101608.63;;;16.52;48.80
58991;BME280;44781;53.444;14.476;2023-05-11T07:51:31;101605.76;;;16.64;48.42
58991;BME280;44781;53.444;14.476;2023-05-11T07:53:58;101610.10;;;16.76;47.99
58991;BME280;44781;53.444;14.476;2023-05-11T07:56:25;101611.06;;;16.87;48.00
58991;BME280;44781;53.444;14.476;2023-05-11T07:58:52;101612.11;;;16.98;47.71
58991;BME280;44781;53.444;14.476;2023-05-11T08:01:19;101609.42;;;17.08;47.67
58991;BME280;44781;53.444;14.476;2023-05-11T08:03:45;101610.00;;;17.17;47.22
58991;BME280;44781;53.444;14.476;2023-05-11T08:06:13;101607.89;;;17.26;46.97
58991;BME280;44781;53.444;14.476;2023-05-11T08:08:41;101607.15;;;17.37;47.10
58991;BME280;44781;53.444;14.476;2023-05-11T08:11:08;101605.41;;;17.46;47.11
58991;BME280;44781;53.444;14.476;2023-05-11T08:13:37;101604.88;;;17.55;47.04
58991;BME280;44781;53.444;14.476;2023-05-11T08:16:04;101604.42;;;17.66;46.86
58991;BME280;44781;53.444;14.476;2023-05-11T08:18:32;101601.39;;;17.76;46.68
58991;BME280;44781;53.444;14.476;2023-05-11T08:20:59;101600.10;;;17.86;46.66
58991;BME280;44781;53.444;14.476;2023-05-11T08:23:25;101603.27;;;17.96;46.69
58991;BME280;44781;53.444;14.476;2023-05-11T08:25:54;101603.68;;;18.05;46.48
58991;BME280;44781;53.444;14.476;2023-05-11T08:28:24;101602.61;;;18.15;46.10
58991;BME280;44781;53.444;14.476;2023-05-11T08:30:55;101599.42;;;18.24;45.72
58991;BME280;44781;53.444;14.476;2023-05-11T08:33:23;101593.83;;;18.32;45.51
58991;BME280;44781;53.444;14.476;2023-05-11T08:35:50;101592.82;;;18.39;45.13
58991;BME280;44781;53.444;14.476;2023-05-11T08:38:18;101599.94;;;18.44;45.06
58991;BME280;44781;53.444;14.476;2023-05-11T08:40:45;101605.39;;;18.51;44.94
58991;BME280;44781;53.444;14.476;2023-05-11T08:43:17;101606.31;;;18.58;44.83
58991;BME280;44781;53.444;14.476;2023-05-11T08:45:45;101603.37;;;18.64;44.94
58991;BME280;44781;53.444;14.476;2023-05-11T08:48:15;101608.11;;;18.71;44.71
58991;BME280;44781;53.444;14.476;2023-05-11T08:50:46;101609.80;;;18.77;44.78
58991;BME280;44781;53.444;14.476;2023-05-11T08:53:13;101606.17;;;18.84;44.34
58991;BME280;44781;53.444;14.476;2023-05-11T08:55:42;101612.17;;;18.90;44.39
58991;BME280;44781;53.444;14.476;2023-05-11T08:58:11;101612.73;;;18.97;44.32
58991;BME280;44781;53.444;14.476;2023-05-11T09:00:42;101613.21;;;19.03;43.95
58991;BME280;44781;53.444;14.476;2023-05-11T09:03:09;101615.52;;;19.09;43.82
58991;BME280;44781;53.444;14.476;2023-05-11T09:05:37;101611.58;;;19.15;43.67
58991;BME280;44781;53.444;14.476;2023-05-11T09:08:06;101611.64;;;19.21;43.90
58991;BME280;44781;53.444;14.476;2023-05-11T09:10:35;101616.60;;;19.29;43.75
58991;BME280;44781;53.444;14.476;2023-05-11T09:13:02;101614.31;;;19.36;43.68
58991;BME280;44781;53.444;14.476;2023-05-11T09:15:29;101618.88;;;19.42;43.41
58991;BME280;44781;53.444;14.476;2023-05-11T09:17:56;101616.16;;;19.48;43.07
58991;BME280;44781;53.444;14.476;2023-05-11T09:20:28;101613.52;;;19.53;42.84
58991;BME280;44781;53.444;14.476;2023-05-11T09:22:55;101618.13;;;19.58;42.90
58991;BME280;44781;53.444;14.476;2023-05-11T09:25:24;101621.25;;;19.65;42.93
58991;BME280;44781;53.444;14.476;2023-05-11T09:27:51;101623.41;;;19.70;42.63
58991;BME280;44781;53.444;14.476;2023-05-11T09:30:22;101622.23;;;19.73;42.33
58991;BME280;44781;53.444;14.476;2023-05-11T09:32:53;101622.27;;;19.76;42.26
58991;BME280;44781;53.444;14.476;2023-05-11T09:35:25;101625.31;;;19.80;42.28
58991;BME280;44781;53.444;14.476;2023-05-11T09:38:07;101623.19;;;19.85;42.48
58991;BME280;44781;53.444;14.476;2023-05-11T09:40:36;101620.67;;;19.90;42.28
58991;BME280;44781;53.444;14.476;2023-05-11T09:43:23;101626.75;;;19.94;42.21
58991;BME280;44781;53.444;14.476;2023-05-11T09:45:57;101631.77;;;19.99;42.21
58991;BME280;44781;53.444;14.476;2023-05-11T09:48:33;101631.59;;;20.04;41.92
58991;BME280;44781;53.444;14.476;2023-05-11T09:51:05;101629.20;;;20.08;41.62
58991;BME280;44781;53.444;14.476;2023-05-11T09:53:40;101628.29;;;20.12;41.69
58991;BME280;44781;53.444;14.476;2023-05-11T09:56:10;101623.13;;;20.17;41.87
58991;BME280;44781;53.444;14.476;2023-05-11T10:01:15;101633.16;;;20.29;41.97
58991;BME280;44781;53.444;14.476;2023-05-11T10:03:52;101638.94;;;20.34;41.94
58991;BME280;44781;53.444;14.476;2023-05-11T10:06:21;101639.98;;;20.39;41.79
58991;BME280;44781;53.444;14.476;2023-05-11T10:08:49;101639.30;;;20.44;41.46
58991;BME280;44781;53.444;14.476;2023-05-11T10:11:16;101637.34;;;20.47;41.20
58991;BME280;44781;53.444;14.476;2023-05-11T10:13:47;101634.23;;;20.52;41.10
58991;BME280;44781;53.444;14.476;2023-05-11T10:16:14;101628.57;;;20.56;41.19
58991;BME280;44781;53.444;14.476;2023-05-11T10:18:43;101630.13;;;20.60;40.91
58991;BME280;44781;53.444;14.476;2023-05-11T10:21:11;101626.37;;;20.64;40.65
58991;BME280;44781;53.444;14.476;2023-05-11T10:23:44;101623.48;;;20.67;40.65
58991;BME280;44781;53.444;14.476;2023-05-11T10:26:11;101619.33;;;20.71;40.98
58991;BME280;44781;53.444;14.476;2023-05-11T10:28:39;101611.73;;;20.76;40.91
58991;BME280;44781;53.444;14.476;2023-05-11T10:31:07;101610.91;;;20.82;40.83
58991;BME280;44781;53.444;14.476;2023-05-11T10:33:35;101610.67;;;20.90;40.90
58991;BME280;44781;53.444;14.476;2023-05-11T10:36:02;101607.46;;;20.98;40.44
58991;BME280;44781;53.444;14.476;2023-05-11T10:38:29;101601.65;;;21.05;40.46
58991;BME280;44781;53.444;14.476;2023-05-11T10:41:01;101593.48;;;21.13;40.48
58991;BME280;44781;53.444;14.476;2023-05-11T10:46:41;101586.94;;;21.33;40.21
58991;BME280;44781;53.444;14.476;2023-05-11T10:58:13;101585.45;;;21.72;38.62
58991;BME280;44781;53.444;14.476;2023-05-11T11:03:13;101583.34;;;21.86;38.42
58991;BME280;44781;53.444;14.476;2023-05-11T11:05:41;101581.61;;;21.93;38.18
58991;BME280;44781;53.444;14.476;2023-05-11T11:08:10;101584.59;;;22.02;38.07
58991;BME280;44781;53.444;14.476;2023-05-11T11:10:44;101583.05;;;22.13;37.86
58991;BME280;44781;53.444;14.476;2023-05-11T11:13:16;101581.48;;;22.24;37.78
58991;BME280;44781;53.444;14.476;2023-05-11T11:18:28;101586.29;;;22.44;37.01
58991;BME280;44781;53.444;14.476;2023-05-11T11:20:56;101585.67;;;22.54;36.27
58991;BME280;44781;53.444;14.476;2023-05-11T11:23:53;101586.81;;;22.62;36.04
58991;BME280;44781;53.444;14.476;2023-05-11T11:26:46;101585.84;;;22.70;35.31
58991;BME280;44781;53.444;14.476;2023-05-11T11:29:13;101587.42;;;22.74;35.20
58991;BME280;44781;53.444;14.476;2023-05-11T11:31:41;101587.47;;;22.80;35.54
58991;BME280;44781;53.444;14.476;2023-05-11T11:42:11;101588.29;;;23.01;33.34
58991;BME280;44781;53.444;14.476;2023-05-11T11:44:39;101595.45;;;23.07;33.09
58991;BME280;44781;53.444;14.476;2023-05-11T11:47:13;101590.17;;;23.13;33.45
58991;BME280;44781;53.444;14.476;2023-05-11T11:49:51;101583.21;;;23.22;32.95
58991;BME280;44781;53.444;14.476;2023-05-11T11:55:01;101592.09;;;23.40;31.92
58991;BME280;44781;53.444;14.476;2023-05-11T11:57:43;101586.48;;;23.46;31.76
58991;BME280;44781;53.444;14.476;2023-05-11T12:00:19;101586.39;;;23.50;31.71
58991;BME280;44781;53.444;14.476;2023-05-11T12:02:46;101586.67;;;23.51;31.62
58991;BME280;44781;53.444;14.476;2023-05-11T12:05:15;101591.63;;;23.52;31.90
58991;BME280;44781;53.444;14.476;2023-05-11T12:07:49;101584.31;;;23.49;31.96
58991;BME280;44781;53.444;14.476;2023-05-11T12:10:24;101590.38;;;23.54;32.10
58991;BME280;44781;53.444;14.476;2023-05-11T12:12:51;101590.05;;;23.54;31.88
58991;BME280;44781;53.444;14.476;2023-05-11T12:15:30;101588.35;;;23.55;31.96
58991;BME280;44781;53.444;14.476;2023-05-11T12:18:03;101589.71;;;23.58;32.29
58991;BME280;44781;53.444;14.476;2023-05-11T12:20:31;101593.70;;;23.66;31.93
58991;BME280;44781;53.444;14.476;2023-05-11T12:22:58;101599.39;;;23.76;31.98
58991;BME280;44781;53.444;14.476;2023-05-11T12:25:25;101595.77;;;23.87;31.68
58991;BME280;44781;53.444;14.476;2023-05-11T12:27:53;101592.95;;;23.95;31.40
58991;BME280;44781;53.444;14.476;2023-05-11T12:30:27;101592.12;;;24.04;31.06
58991;BME280;44781;53.444;14.476;2023-05-11T12:32:54;101598.73;;;24.13;31.03
58991;BME280;44781;53.444;14.476;2023-05-11T12:35:29;101592.88;;;24.24;31.11
58991;BME280;44781;53.444;14.476;2023-05-11T12:37:59;101591.83;;;24.36;31.10
58991;BME280;44781;53.444;14.476;2023-05-11T12:40:27;101593.31;;;24.47;30.82
58991;BME280;44781;53.444;14.476;2023-05-11T12:42:56;101593.77;;;24.58;30.79
58991;BME280;44781;53.444;14.476;2023-05-11T12:45:25;101594.11;;;24.66;30.60
58991;BME280;44781;53.444;14.476;2023-05-11T12:47:53;101593.94;;;24.72;30.39
58991;BME280;44781;53.444;14.476;2023-05-11T12:50:21;101592.81;;;24.75;30.52
58991;BME280;44781;53.444;14.476;2023-05-11T12:52:48;101594.77;;;24.78;30.69
58991;BME280;44781;53.444;14.476;2023-05-11T12:55:29;101595.44;;;24.80;30.88
58991;BME280;44781;53.444;14.476;2023-05-11T12:58:13;101597.66;;;24.80;30.87
58991;BME280;44781;53.444;14.476;2023-05-11T13:01:09;101597.32;;;24.79;31.18
58991;BME280;44781;53.444;14.476;2023-05-11T13:03:47;101597.83;;;24.80;31.13
58991;BME280;44781;53.444;14.476;2023-05-11T13:06:18;101597.03;;;24.79;31.24
58991;BME280;44781;53.444;14.476;2023-05-11T13:08:45;101598.69;;;24.75;30.88
58991;BME280;44781;53.444;14.476;2023-05-11T13:13:55;101596.52;;;24.65;31.05
58991;BME280;44781;53.444;14.476;2023-05-11T13:16:29;101596.83;;;24.60;31.19
58991;BME280;44781;53.444;14.476;2023-05-11T13:19:05;101596.06;;;24.55;31.38
58991;BME280;44781;53.444;14.476;2023-05-11T13:21:33;101596.24;;;24.46;31.63
58991;BME280;44781;53.444;14.476;2023-05-11T13:24:00;101596.02;;;24.38;31.74
58991;BME280;44781;53.444;14.476;2023-05-11T13:26:29;101596.48;;;24.32;32.00
58991;BME280;44781;53.444;14.476;2023-05-11T13:28:56;101593.47;;;24.25;31.93
58991;BME280;44781;53.444;14.476;2023-05-11T13:31:23;101589.89;;;24.22;32.41
58991;BME280;44781;53.444;14.476;2023-05-11T13:33:51;101591.21;;;24.22;32.48
58991;BME280;44781;53.444;14.476;2023-05-11T13:36:18;101588.81;;;24.24;32.53
58991;BME280;44781;53.444;14.476;2023-05-11T13:38:45;101586.11;;;24.29;32.33